Time;durP1;ratioP1;P1;durP2;ratioP2;P2;SDS_P1;SDS_P2;PMS_P1;PMS_P2;Temp;Humidity;BMP_temperature;BMP_pressure;BME280_temperature;BME280_humidity;BME280_pressure;Samples;Min_cycle;Max_cycle;Signal;HPM_P1;HPM_P2
2023/01/28 00:00:06;;;;;;;6.70;4.53;;;0.60;99.90;;;;;;5013685;28;20026;-52
2023/01/28 00:02:32;;;;;;;7.75;4.47;;;0.60;99.90;;;;;;5019306;28;20079;-51
2023/01/28 00:04:58;;;;;;;5.32;4.20;;;0.60;99.90;;;;;;5015204;28;20033;-53
2023/01/28 00:07:24;;;;;;;6.68;4.25;;;0.50;99.90;;;;;;5014150;28;20083;-53
2023/01/28 00:09:49;;;;;;;5.95;4.00;;;0.50;99.90;;;;;;5019889;28;20018;-54
2023/01/28 00:12:15;;;;;;;5.22;3.60;;;0.50;99.90;;;;;;5017209;28;20491;-54
2023/01/28 00:14:40;;;;;;;5.10;3.90;;;0.50;99.90;;;;;;5013404;28;20117;-51
2023/01/28 00:17:06;;;;;;;4.90;4.15;;;0.60;99.90;;;;;;5013335;28;20042;-53
2023/01/28 00:19:32;;;;;;;6.25;4.22;;;0.50;99.90;;;;;;5015572;28;20033;-51
2023/01/28 00:21:57;;;;;;;6.43;4.07;;;0.50;99.90;;;;;;5013120;28;20022;-52
2023/01/28 00:24:23;;;;;;;6.30;4.00;;;0.50;99.90;;;;;;5015098;28;20025;-50
2023/01/28 00:26:49;;;;;;;7.13;3.80;;;0.50;99.90;;;;;;5015413;28;20019;-54
2023/01/28 00:29:15;;;;;;;5.35;3.28;;;0.50;99.90;;;;;;5013213;28;20017;-54
2023/01/28 00:31:40;;;;;;;6.57;3.30;;;0.50;99.90;;;;;;5009900;28;20461;-53
2023/01/28 00:34:06;;;;;;;4.32;3.30;;;0.50;99.90;;;;;;5010626;28;20381;-55
2023/01/28 00:36:32;;;;;;;3.40;2.95;;;0.50;99.90;;;;;;5010627;28;20432;-51
2023/01/28 00:38:59;;;;;;;4.30;3.60;;;0.50;99.90;;;;;;5012265;28;20026;-53
2023/01/28 00:41:28;;;;;;;3.97;3.03;;;0.40;99.90;;;;;;5014630;28;20024;-50
2023/01/28 00:43:54;;;;;;;6.28;3.10;;;0.40;99.90;;;;;;5020554;28;20057;-52
2023/01/28 00:46:21;;;;;;;3.97;3.20;;;0.40;99.90;;;;;;5013174;28;20025;-50
2023/01/28 00:48:47;;;;;;;3.28;2.97;;;0.50;99.90;;;;;;5019066;28;20115;-51
2023/01/28 00:51:16;;;;;;;7.97;3.58;;;0.40;99.90;;;;;;5011902;28;20101;-54
2023/01/28 00:53:42;;;;;;;5.80;3.50;;;0.50;99.90;;;;;;5011291;28;20033;-51
2023/01/28 00:56:12;;;;;;;5.90;3.17;;;0.50;99.90;;;;;;5017106;28;20025;-51
2023/01/28 00:58:37;;;;;;;5.60;3.72;;;0.40;99.90;;;;;;5010370;28;20041;-54
2023/01/28 01:01:16;;;;;;;5.13;2.95;;;0.40;99.90;;;;;;5014225;28;20100;-53
2023/01/28 01:03:42;;;;;;;4.70;2.88;;;0.40;99.90;;;;;;5018618;28;20033;-51
2023/01/28 01:06:09;;;;;;;5.70;3.55;;;0.40;99.90;;;;;;5015048;28;20034;-52
2023/01/28 01:08:38;;;;;;;4.18;3.28;;;0.40;99.90;;;;;;5015854;28;20033;-53
2023/01/28 01:11:05;;;;;;;3.45;3.03;;;0.40;99.90;;;;;;5021138;28;20030;-51
2023/01/28 01:13:33;;;;;;;3.70;2.90;;;0.40;99.90;;;;;;5020507;28;20042;-50
2023/01/28 01:16:08;;;;;;;3.17;2.35;;;0.40;99.90;;;;;;5015747;28;20555;-51
2023/01/28 01:18:35;;;;;;;4.03;2.93;;;0.40;99.90;;;;;;5015314;28;20037;-52
2023/01/28 01:21:01;;;;;;;3.65;2.75;;;0.40;99.90;;;;;;5015475;28;20275;-51
2023/01/28 01:23:29;;;;;;;3.80;2.55;;;0.40;99.90;;;;;;5017352;28;20026;-51
2023/01/28 01:25:54;;;;;;;2.83;2.47;;;0.40;99.90;;;;;;5017783;28;20050;-52
2023/01/28 01:28:21;;;;;;;4.22;3.08;;;0.40;99.90;;;;;;5017089;28;20025;-54
2023/01/28 01:30:47;;;;;;;2.75;2.38;;;0.40;99.90;;;;;;5017136;28;20036;-51
2023/01/28 01:33:13;;;;;;;3.10;2.38;;;0.40;99.90;;;;;;5018652;28;20053;-54
2023/01/28 01:35:39;;;;;;;4.60;2.25;;;0.40;99.90;;;;;;5015482;28;20511;-53
2023/01/28 01:38:05;;;;;;;2.63;2.38;;;0.40;99.90;;;;;;5018494;28;20037;-51
2023/01/28 01:40:31;;;;;;;3.55;1.90;;;0.40;99.90;;;;;;5021612;28;20062;-53
2023/01/28 01:42:56;;;;;;;3.20;2.08;;;0.40;99.90;;;;;;5014402;28;20025;-55
2023/01/28 01:45:22;;;;;;;2.42;2.22;;;0.40;99.90;;;;;;5015974;28;20069;-52
2023/01/28 01:48:12;;;;;;;2.88;2.22;;;0.40;99.90;;;;;;5024093;28;20029;-51
2023/01/28 01:50:53;;;;;;;2.58;1.90;;;0.40;99.90;;;;;;5020399;28;20601;-51
2023/01/28 01:53:22;;;;;;;3.45;2.22;;;0.30;99.90;;;;;;5017128;28;20037;-54
2023/01/28 01:55:51;;;;;;;2.75;1.92;;;0.30;99.90;;;;;;5019211;28;20025;-54
2023/01/28 01:58:20;;;;;;;2.88;1.85;;;0.30;99.90;;;;;;5017175;28;20029;-54
2023/01/28 02:00:46;;;;;;;6.95;2.03;;;0.30;99.90;;;;;;5013267;28;20395;-53
2023/01/28 02:03:12;;;;;;;7.00;4.40;;;0.30;99.90;;;;;;5014206;28;20028;-50
2023/01/28 02:05:38;;;;;;;7.47;4.30;;;0.30;99.90;;;;;;5019563;28;20033;-55
2023/01/28 02:08:19;;;;;;;5.28;3.50;;;0.40;99.90;;;;;;5017396;28;20427;-54
2023/01/28 02:10:52;;;;;;;6.38;2.33;;;0.30;99.90;;;;;;5016872;28;20029;-53
2023/01/28 02:13:23;;;;;;;2.95;2.20;;;0.30;99.90;;;;;;5014734;28;20026;-51
2023/01/28 02:15:49;;;;;;;3.15;2.20;;;0.30;99.90;;;;;;5019768;28;20044;-52
2023/01/28 02:18:15;;;;;;;5.45;2.20;;;0.30;99.90;;;;;;5019387;28;20491;-50
2023/01/28 02:21:05;;;;;;;4.75;2.33;;;0.30;99.90;;;;;;5014489;28;20036;-50
2023/01/28 02:23:43;;;;;;;6.95;2.38;;;0.30;99.90;;;;;;5018585;28;20623;-54
2023/01/28 02:26:30;;;;;;;2.90;1.88;;;0.30;99.90;;;;;;5014272;28;20472;-52
2023/01/28 02:29:08;;;;;;;2.20;1.75;;;0.30;99.90;;;;;;5017026;28;20032;-52
2023/01/28 02:31:54;;;;;;;6.03;2.35;;;0.30;99.90;;;;;;5017847;28;20132;-51
2023/01/28 02:34:26;;;;;;;2.53;2.03;;;0.20;99.90;;;;;;5013815;28;20100;-52
2023/01/28 02:37:01;;;;;;;2.30;1.85;;;0.20;99.90;;;;;;5016258;28;20021;-51
2023/01/28 02:39:34;;;;;;;3.00;2.28;;;0.20;99.90;;;;;;5014408;28;20044;-50
2023/01/28 02:42:06;;;;;;;3.67;2.40;;;0.20;99.90;;;;;;5013943;28;20014;-54
2023/01/28 02:44:32;;;;;;;2.75;1.90;;;0.20;99.90;;;;;;5020259;28;20030;-52
2023/01/28 02:49:53;;;;;;;4.18;1.90;;;0.20;99.90;;;;;;5021135;28;20518;-50
2023/01/28 02:56:00;;;;;;;2.70;1.70;;;0.20;99.90;;;;;;5019604;28;20537;-50
2023/01/28 02:58:41;;;;;;;3.70;1.70;;;0.20;99.90;;;;;;5014384;28;20040;-51
2023/01/28 03:01:27;;;;;;;2.38;1.45;;;0.20;99.90;;;;;;5010997;28;20080;-52
2023/01/28 03:04:31;;;;;;;4.78;2.17;;;0.20;99.90;;;;;;5017494;28;20380;-53
2023/01/28 03:07:03;;;;;;;4.00;2.30;;;0.20;99.90;;;;;;4957667;28;20037;-53
2023/01/28 03:09:29;;;;;;;2.30;1.92;;;0.20;99.90;;;;;;5018720;28;20033;-51
2023/01/28 03:38:19;;;;;;;2.67;2.08;;;0.10;99.90;;;;;;5013327;28;20121;-52
2023/01/28 03:40:57;;;;;;;2.25;1.92;;;0.10;99.90;;;;;;5024120;28;20034;-53
2023/01/28 03:43:23;;;;;;;4.32;2.50;;;0.10;99.90;;;;;;5012662;28;20174;-50
2023/01/28 03:45:50;;;;;;;2.47;2.28;;;0.00;99.90;;;;;;5023139;28;20116;-53
2023/01/28 03:48:18;;;;;;;3.00;1.95;;;0.10;99.90;;;;;;5016622;28;20613;-51
2023/01/28 03:50:43;;;;;;;5.68;2.95;;;0.00;99.90;;;;;;5011708;28;20025;-52
2023/01/28 03:53:12;;;;;;;4.85;2.45;;;0.00;99.90;;;;;;5018023;28;20133;-54
2023/01/28 03:55:38;;;;;;;3.42;2.10;;;0.00;99.90;;;;;;5016442;28;20079;-51
2023/01/28 03:58:07;;;;;;;2.97;1.98;;;0.00;99.90;;;;;;5018617;28;20022;-52
2023/01/28 04:00:40;;;;;;;2.13;1.90;;;0.00;99.90;;;;;;5012703;28;20388;-51
2023/01/28 04:03:14;;;;;;;2.55;2.20;;;0.00;99.90;;;;;;5015424;28;20029;-51
2023/01/28 04:05:58;;;;;;;4.10;2.25;;;0.00;99.90;;;;;;5014433;28;20025;-51
2023/01/28 04:08:24;;;;;;;3.83;2.10;;;-0.10;99.90;;;;;;5014175;28;20042;-51
2023/01/28 04:10:50;;;;;;;4.47;2.38;;;-0.10;99.90;;;;;;5017893;28;20638;-52
2023/01/28 04:13:17;;;;;;;2.78;2.10;;;-0.10;99.90;;;;;;5010814;28;20036;-51
2023/01/28 04:15:42;;;;;;;5.22;3.30;;;-0.10;99.90;;;;;;5013648;28;20030;-52
2023/01/28 04:18:09;;;;;;;4.88;3.25;;;-0.20;99.90;;;;;;5011412;28;20033;-50
2023/01/28 04:20:35;;;;;;;6.55;3.83;;;-0.20;99.90;;;;;;5015272;28;20124;-51
2023/01/28 04:23:00;;;;;;;5.80;3.60;;;-0.30;99.90;;;;;;5020772;28;20018;-53
2023/01/28 04:25:26;;;;;;;4.40;2.67;;;-0.30;99.90;;;;;;5014322;28;20096;-52
2023/01/28 04:27:52;;;;;;;5.35;3.08;;;-0.30;99.90;;;;;;5018018;28;20364;-53
2023/01/28 04:30:18;;;;;;;3.17;2.50;;;-0.40;99.90;;;;;;5012608;28;20048;-52
2023/01/28 04:32:45;;;;;;;3.95;2.92;;;-0.40;99.90;;;;;;5017177;28;20029;-53
2023/01/28 04:35:11;;;;;;;3.30;2.03;;;-0.50;99.90;;;;;;5019293;28;20421;-52
2023/01/28 04:37:37;;;;;;;6.35;4.25;;;-0.50;99.90;;;;;;5013258;28;20040;-51
2023/01/28 04:40:03;;;;;;;9.23;5.32;;;-0.50;99.90;;;;;;4995762;22;1132799;-59
2023/01/28 04:42:28;;;;;;;7.25;4.85;;;-0.60;99.90;;;;;;5009431;28;20044;-58
2023/01/28 04:44:54;;;;;;;6.90;4.45;;;-0.60;99.90;;;;;;5009203;28;20025;-56
2023/01/28 04:47:19;;;;;;;7.78;4.68;;;-0.70;99.90;;;;;;5011962;28;20034;-61
2023/01/28 04:49:45;;;;;;;10.23;4.43;;;-0.70;99.90;;;;;;4999273;28;20033;-60
2023/01/28 04:52:11;;;;;;;6.25;4.10;;;-0.70;99.90;;;;;;4991207;28;20068;-59
2023/01/28 04:54:36;;;;;;;5.85;3.83;;;-0.70;99.90;;;;;;4990946;28;20026;-58
2023/01/28 04:57:02;;;;;;;5.88;2.83;;;-0.70;99.90;;;;;;4972584;28;20456;-59
2023/01/28 04:59:28;;;;;;;4.00;3.10;;;-0.80;99.90;;;;;;4989226;28;20022;-60
2023/01/28 05:01:53;;;;;;;3.00;2.60;;;-0.80;99.90;;;;;;4990629;28;20022;-60
2023/01/28 05:04:19;;;;;;;5.65;3.15;;;-0.80;99.90;;;;;;4989854;28;20030;-58
2023/01/28 05:06:45;;;;;;;4.63;3.45;;;-0.90;99.90;;;;;;4991399;28;20076;-58
2023/01/28 05:09:10;;;;;;;5.38;2.88;;;-0.90;99.90;;;;;;4991919;28;20398;-61
2023/01/28 05:11:36;;;;;;;3.25;2.47;;;-1.00;99.90;;;;;;4992361;28;20592;-60
2023/01/28 05:14:02;;;;;;;4.95;2.50;;;-1.00;99.90;;;;;;4990440;28;20162;-58
2023/01/28 05:16:27;;;;;;;4.32;2.83;;;-1.10;99.90;;;;;;4989911;28;20111;-61
2023/01/28 05:18:53;;;;;;;3.63;2.63;;;-1.10;99.90;;;;;;4991724;28;20033;-61
2023/01/28 05:21:19;;;;;;;5.05;2.50;;;-1.10;99.90;;;;;;4992330;28;20026;-60
2023/01/28 05:23:44;;;;;;;4.35;2.67;;;-1.20;99.90;;;;;;4990868;28;20014;-60
2023/01/28 05:26:10;;;;;;;5.18;2.83;;;-1.20;99.90;;;;;;4991267;28;20030;-58
2023/01/28 05:28:35;;;;;;;5.28;2.92;;;-1.30;99.90;;;;;;4989753;28;20026;-61
2023/01/28 05:31:05;;;;;;;5.68;3.35;;;-1.30;99.90;;;;;;4991188;28;20049;-62
2023/01/28 05:33:31;;;;;;;4.38;3.03;;;-1.30;99.90;;;;;;4989523;28;20034;-61
2023/01/28 05:35:57;;;;;;;5.10;3.25;;;-1.40;99.90;;;;;;4991306;28;20046;-61
2023/01/28 05:38:23;;;;;;;4.30;3.08;;;-1.40;99.90;;;;;;4991180;28;20567;-61
2023/01/28 05:40:48;;;;;;;3.22;2.92;;;-1.40;99.90;;;;;;4991108;28;20096;-61
2023/01/28 05:43:14;;;;;;;5.10;2.85;;;-1.40;99.90;;;;;;4990938;28;20491;-62
2023/01/28 05:45:40;;;;;;;3.40;2.92;;;-1.50;99.90;;;;;;4990970;28;20054;-62
2023/01/28 05:48:06;;;;;;;4.65;3.17;;;-1.50;99.90;;;;;;4990129;28;20120;-62
2023/01/28 05:50:32;;;;;;;8.95;3.15;;;-1.50;99.90;;;;;;4991073;28;20501;-62
2023/01/28 05:52:58;;;;;;;3.70;3.00;;;-1.50;99.90;;;;;;4991499;28;20026;-62
2023/01/28 05:55:23;;;;;;;5.55;3.30;;;-1.60;99.90;;;;;;4990997;28;20158;-61
2023/01/28 05:57:49;;;;;;;5.55;3.08;;;-1.60;99.90;;;;;;4990811;28;20026;-62
2023/01/28 06:00:16;;;;;;;5.18;3.17;;;-1.60;99.90;;;;;;4991386;28;20022;-62
2023/01/28 06:02:42;;;;;;;3.15;2.85;;;-1.60;99.90;;;;;;4990997;28;20041;-62
2023/01/28 06:05:08;;;;;;;3.22;2.65;;;-1.60;99.90;;;;;;4988750;28;20030;-60
2023/01/28 06:07:34;;;;;;;3.30;3.00;;;-1.70;99.90;;;;;;4991671;28;20038;-62
2023/01/28 06:09:59;;;;;;;3.42;2.83;;;-1.60;99.90;;;;;;4989865;28;20480;-61
2023/01/28 06:12:25;;;;;;;2.95;2.75;;;-1.70;99.90;;;;;;4990543;28;20031;-62
2023/01/28 06:14:51;;;;;;;2.78;2.58;;;-1.70;99.90;;;;;;4989635;28;20110;-62
2023/01/28 06:17:16;;;;;;;2.75;2.50;;;-1.70;99.90;;;;;;4990750;28;20097;-62
2023/01/28 06:19:42;;;;;;;4.35;2.75;;;-1.70;99.90;;;;;;4989386;28;20034;-62
2023/01/28 06:22:08;;;;;;;5.93;3.58;;;-1.70;99.90;;;;;;4989946;28;20461;-63
2023/01/28 06:24:34;;;;;;;3.40;3.10;;;-1.70;99.90;;;;;;4989739;28;20038;-64
2023/01/28 06:26:59;;;;;;;2.75;2.22;;;-1.70;99.90;;;;;;4989002;28;20069;-63
2023/01/28 06:29:25;;;;;;;3.03;2.70;;;-1.70;99.90;;;;;;4988351;28;20042;-63
2023/01/28 06:31:51;;;;;;;3.20;2.60;;;-1.80;99.90;;;;;;4988754;28;20030;-63
2023/01/28 06:34:16;;;;;;;3.67;3.30;;;-1.70;99.90;;;;;;4988997;28;20049;-63
2023/01/28 06:36:42;;;;;;;4.90;2.45;;;-1.70;99.90;;;;;;4990115;28;20089;-63
2023/01/28 06:39:07;;;;;;;5.63;3.42;;;-1.80;99.90;;;;;;4987946;28;20030;-62
2023/01/28 06:41:33;;;;;;;5.13;3.13;;;-1.80;99.90;;;;;;4989399;28;20023;-63
2023/01/28 06:43:59;;;;;;;4.13;3.05;;;-1.80;99.90;;;;;;4988310;28;20027;-63
2023/01/28 06:46:24;;;;;;;3.20;2.90;;;-1.80;99.90;;;;;;4989474;28;20587;-63
2023/01/28 06:48:50;;;;;;;7.65;4.22;;;-1.90;99.90;;;;;;4988354;28;20026;-63
2023/01/28 06:51:15;;;;;;;4.05;2.97;;;-1.90;99.90;;;;;;4989967;28;20034;-63
2023/01/28 06:53:41;;;;;;;5.03;3.30;;;-1.90;99.90;;;;;;4988593;28;20030;-63
2023/01/28 06:56:07;;;;;;;6.00;3.72;;;-1.90;99.90;;;;;;4986660;28;20026;-63
2023/01/28 06:58:33;;;;;;;4.63;3.40;;;-1.90;99.90;;;;;;4989794;28;20026;-63
2023/01/28 07:00:59;;;;;;;5.47;3.75;;;-1.90;99.90;;;;;;4989072;28;20031;-63
2023/01/28 07:03:24;;;;;;;5.53;4.15;;;-1.90;99.90;;;;;;4990760;28;20030;-63
2023/01/28 07:05:50;;;;;;;6.25;4.78;;;-2.00;99.90;;;;;;4989537;28;20496;-63
2023/01/28 07:08:16;;;;;;;6.38;4.50;;;-2.00;99.90;;;;;;4987688;28;20033;-63
2023/01/28 07:10:42;;;;;;;5.55;4.65;;;-2.00;99.90;;;;;;4989443;28;20524;-63
2023/01/28 07:13:08;;;;;;;7.15;5.75;;;-2.00;99.90;;;;;;4990479;28;20555;-63
2023/01/28 07:15:34;;;;;;;4.95;4.45;;;-2.10;99.90;;;;;;4990208;28;20246;-63
2023/01/28 07:18:00;;;;;;;7.28;5.88;;;-2.00;99.90;;;;;;4990058;28;20037;-63
2023/01/28 07:20:25;;;;;;;9.23;5.80;;;-2.10;99.90;;;;;;4990199;28;20038;-63
2023/01/28 07:22:51;;;;;;;6.68;5.28;;;-2.10;99.90;;;;;;4989334;28;20060;-63
2023/01/28 07:25:17;;;;;;;7.10;6.07;;;-2.10;99.90;;;;;;4989093;28;20570;-63
2023/01/28 07:27:50;;;;;;;7.97;5.32;;;-2.10;99.90;;;;;;4989694;28;20031;-63
2023/01/28 07:30:17;;;;;;;8.57;6.07;;;-2.10;99.90;;;;;;4987450;28;20036;-63
2023/01/28 07:32:43;;;;;;;8.40;6.25;;;-2.10;99.90;;;;;;4989520;28;20031;-63
2023/01/28 07:35:09;;;;;;;9.48;6.72;;;-2.10;99.90;;;;;;4988701;28;20368;-63
2023/01/28 07:37:35;;;;;;;9.10;7.43;;;-2.10;99.90;;;;;;4989473;28;20104;-63
2023/01/28 07:40:00;;;;;;;7.22;5.88;;;-2.10;99.90;;;;;;4989324;28;20045;-63
2023/01/28 07:42:26;;;;;;;8.02;6.85;;;-2.10;99.90;;;;;;4990091;28;20034;-63
2023/01/28 07:44:51;;;;;;;9.30;7.63;;;-2.20;99.90;;;;;;4985911;28;20031;-63
2023/01/28 07:47:18;;;;;;;10.13;6.47;;;-2.10;99.90;;;;;;4988956;28;20081;-63
2023/01/28 07:49:43;;;;;;;10.75;6.82;;;-2.20;99.90;;;;;;4987856;28;20405;-63
2023/01/28 07:52:09;;;;;;;8.38;7.28;;;-2.10;99.90;;;;;;4988268;28;20037;-63
2023/01/28 07:54:35;;;;;;;8.82;6.82;;;-2.20;99.90;;;;;;4988946;28;20114;-63
2023/01/28 07:57:01;;;;;;;12.27;8.18;;;-2.20;99.90;;;;;;4987705;28;20097;-63
2023/01/28 07:59:27;;;;;;;9.63;6.85;;;-2.20;99.90;;;;;;4989236;28;20034;-63
2023/01/28 08:01:55;;;;;;;9.52;6.60;;;-2.20;99.90;;;;;;4988806;28;20046;-63
2023/01/28 08:04:20;;;;;;;11.68;7.45;;;-2.20;99.90;;;;;;4989532;28;20085;-63
2023/01/28 08:06:46;;;;;;;11.63;7.30;;;-2.20;99.90;;;;;;4988924;28;20026;-62
2023/01/28 08:09:11;;;;;;;13.63;7.70;;;-2.20;99.90;;;;;;4988661;28;20027;-63
2023/01/28 08:11:38;;;;;;;8.43;7.15;;;-2.20;99.90;;;;;;4989834;28;20412;-63
2023/01/28 08:14:04;;;;;;;10.52;6.43;;;-2.20;99.90;;;;;;4989693;28;20041;-63
2023/01/28 08:16:30;;;;;;;11.20;7.13;;;-2.20;99.90;;;;;;4988157;28;20713;-63
2023/01/28 08:18:56;;;;;;;9.55;7.68;;;-2.20;99.90;;;;;;4988338;28;20026;-63
2023/01/28 08:21:21;;;;;;;9.32;6.90;;;-2.20;99.90;;;;;;4987837;28;20030;-63
2023/01/28 08:23:47;;;;;;;9.93;7.60;;;-2.20;99.90;;;;;;4987307;28;20038;-62
2023/01/28 08:26:13;;;;;;;11.65;8.02;;;-2.20;99.90;;;;;;4987899;28;20473;-63
2023/01/28 08:28:38;;;;;;;12.07;9.23;;;-2.20;99.90;;;;;;4987632;28;20033;-63
2023/01/28 08:31:04;;;;;;;13.70;10.27;;;-2.20;99.90;;;;;;4986682;28;20412;-63
2023/01/28 08:33:29;;;;;;;12.52;9.40;;;-2.20;99.90;;;;;;4987318;28;20037;-63
2023/01/28 08:35:55;;;;;;;13.13;10.30;;;-2.20;99.90;;;;;;4987600;28;20062;-63
2023/01/28 08:38:21;;;;;;;11.15;8.73;;;-2.20;99.90;;;;;;4987852;28;20044;-63
2023/01/28 08:40:49;;;;;;;13.50;9.23;;;-2.10;99.90;;;;;;4988817;28;20041;-62
2023/01/28 08:43:15;;;;;;;13.13;8.50;;;-2.10;99.90;;;;;;4987878;28;20049;-62
2023/01/28 08:45:40;;;;;;;13.23;8.45;;;-2.00;99.90;;;;;;4988062;28;20470;-62
2023/01/28 08:48:10;;;;;;;13.75;8.32;;;-2.00;99.90;;;;;;4988268;28;20026;-62
2023/01/28 08:50:38;;;;;;;13.63;9.10;;;-1.90;99.90;;;;;;4988632;28;20048;-62
2023/01/28 08:53:14;;;;;;;13.73;9.90;;;-1.80;99.90;;;;;;4988710;28;20029;-62
2023/01/28 08:55:40;;;;;;;17.15;9.80;;;-1.70;99.90;;;;;;4986843;28;20042;-62
2023/01/28 08:58:09;;;;;;;13.68;8.65;;;-1.60;99.90;;;;;;4987993;28;20404;-62
2023/01/28 09:00:35;;;;;;;11.23;8.63;;;-1.60;99.90;;;;;;4988863;28;21180;-62
2023/01/28 09:03:01;;;;;;;11.07;8.80;;;-1.50;99.90;;;;;;4988460;28;20029;-62
2023/01/28 09:05:27;;;;;;;12.75;9.05;;;-1.30;99.90;;;;;;4989083;28;20058;-61
2023/01/28 09:07:52;;;;;;;10.05;8.20;;;-1.30;99.90;;;;;;4988104;28;20428;-62
2023/01/28 09:10:21;;;;;;;12.00;8.82;;;-1.10;99.90;;;;;;4988933;28;20029;-62
2023/01/28 09:12:47;;;;;;;12.40;7.68;;;-1.00;99.90;;;;;;4988009;28;20484;-62
2023/01/28 09:15:12;;;;;;;9.23;7.72;;;-0.90;99.90;;;;;;4987019;28;20054;-62
2023/01/28 09:17:38;;;;;;;12.98;9.25;;;-0.80;99.90;;;;;;4987890;28;20027;-62
2023/01/28 09:20:05;;;;;;;10.85;8.30;;;-0.70;99.90;;;;;;4987744;28;20035;-62
2023/01/28 09:22:32;;;;;;;10.90;8.98;;;-0.70;99.90;;;;;;4986820;28;20437;-62
2023/01/28 09:24:57;;;;;;;12.25;8.43;;;-0.70;99.90;;;;;;4990775;28;20028;-61
2023/01/28 09:27:23;;;;;;;9.25;7.78;;;-0.60;99.90;;;;;;4991200;28;20109;-62
2023/01/28 09:29:48;;;;;;;10.30;8.02;;;-0.60;99.90;;;;;;4991656;28;20484;-61
2023/01/28 09:32:14;;;;;;;10.32;7.20;;;-0.50;99.90;;;;;;4991065;28;20050;-61
2023/01/28 09:34:40;;;;;;;11.38;8.00;;;-0.40;99.90;;;;;;4991691;28;20030;-61
2023/01/28 09:37:05;;;;;;;12.15;7.47;;;-0.30;99.90;;;;;;4990716;28;20121;-61
2023/01/28 09:39:31;;;;;;;9.27;7.30;;;-0.20;99.90;;;;;;4990310;28;20404;-62
2023/01/28 09:42:00;;;;;;;9.38;7.30;;;-0.10;99.90;;;;;;4991659;28;20077;-62
2023/01/28 09:44:44;;;;;;;8.27;7.47;;;0.00;99.90;;;;;;4990756;28;20022;-61
2023/01/28 09:47:25;;;;;;;10.02;7.10;;;0.10;99.90;;;;;;4989670;28;20084;-62
2023/01/28 09:49:53;;;;;;;10.20;7.35;;;0.20;99.90;;;;;;4991477;28;20081;-62
2023/01/28 09:52:22;;;;;;;10.63;6.97;;;0.30;99.90;;;;;;4990495;28;20027;-62
2023/01/28 09:54:55;;;;;;;8.52;7.28;;;0.30;99.90;;;;;;4991318;28;20022;-62
2023/01/28 09:57:36;;;;;;;10.10;7.30;;;0.30;99.90;;;;;;4991610;28;20505;-63
2023/01/28 10:00:08;;;;;;;16.10;10.48;;;0.30;99.90;;;;;;4991969;28;20070;-62
2023/01/28 10:02:47;;;;;;;21.67;12.63;;;0.40;99.90;;;;;;4990683;28;20027;-62
2023/01/28 10:05:27;;;;;;;15.90;10.93;;;0.60;99.90;;;;;;4990414;28;20396;-61
2023/01/28 10:08:36;;;;;;;12.15;10.40;;;0.70;99.90;;;;;;4991775;28;20625;-62
2023/01/28 10:11:15;;;;;;;11.25;9.50;;;0.70;99.90;;;;;;4990861;28;20388;-62
2023/01/28 10:14:16;;;;;;;14.90;11.75;;;0.70;99.90;;;;;;4992549;28;20089;-62
2023/01/28 10:16:47;;;;;;;11.52;8.85;;;0.70;99.90;;;;;;4919659;29;20040;-63
2023/01/28 10:19:28;;;;;;;10.13;8.50;;;0.60;99.90;;;;;;4978436;28;20548;-62
2023/01/28 10:22:12;;;;;;;11.75;8.40;;;0.60;99.90;;;;;;4990370;28;20428;-62
2023/01/28 10:24:43;;;;;;;12.50;8.48;;;0.60;99.90;;;;;;4989756;28;20030;-62
2023/01/28 10:27:18;;;;;;;10.07;7.85;;;0.60;99.90;;;;;;4991118;28;20049;-63
2023/01/28 10:29:48;;;;;;;8.25;7.00;;;0.60;99.90;;;;;;4989684;28;20026;-62
2023/01/28 10:32:33;;;;;;;11.70;9.10;;;0.60;99.90;;;;;;4989842;28;20034;-63
2023/01/28 10:35:00;;;;;;;13.20;9.77;;;0.70;99.90;;;;;;4988504;28;20109;-62
2023/01/28 10:37:28;;;;;;;15.82;10.18;;;0.70;99.90;;;;;;4989482;28;20058;-62
2023/01/28 10:39:57;;;;;;;11.75;9.38;;;0.70;99.90;;;;;;4989615;28;20034;-63
2023/01/28 10:42:37;;;;;;;14.80;10.25;;;0.80;99.90;;;;;;4990144;28;20026;-63
2023/01/28 10:45:18;;;;;;;13.02;9.27;;;0.90;99.90;;;;;;4988875;28;20041;-62
2023/01/28 10:48:05;;;;;;;14.52;9.50;;;1.00;99.90;;;;;;4990035;28;20044;-60
2023/01/28 10:50:31;;;;;;;11.10;9.32;;;1.00;99.90;;;;;;4989830;28;20096;-64
2023/01/28 10:53:06;;;;;;;13.30;10.20;;;1.00;99.90;;;;;;4990526;28;20504;-62
2023/01/28 10:55:45;;;;;;;14.73;10.40;;;0.90;99.90;;;;;;4989090;28;20059;-62
2023/01/28 10:58:19;;;;;;;13.18;9.52;;;0.90;99.90;;;;;;4988960;28;20024;-62
2023/01/28 11:00:50;;;;;;;11.98;9.43;;;1.00;99.90;;;;;;4989160;28;20113;-62
2023/01/28 11:03:20;;;;;;;10.32;9.18;;;1.10;99.90;;;;;;4990100;28;20026;-62
2023/01/28 11:05:54;;;;;;;11.50;9.13;;;1.20;99.90;;;;;;4988798;28;20035;-62
2023/01/28 11:08:22;;;;;;;12.57;10.45;;;1.20;99.90;;;;;;4989123;28;20109;-63
2023/01/28 11:10:48;;;;;;;12.95;9.55;;;1.30;99.90;;;;;;4988558;28;20504;-62
2023/01/28 11:13:22;;;;;;;11.52;8.90;;;1.30;99.90;;;;;;4988180;28;20053;-63
2023/01/28 11:15:54;;;;;;;12.60;9.85;;;1.40;99.90;;;;;;4989692;28;20018;-63
2023/01/28 11:18:27;;;;;;;13.15;9.77;;;1.40;99.90;;;;;;4989289;28;20026;-63
2023/01/28 11:20:57;;;;;;;13.90;9.43;;;1.50;99.90;;;;;;4989225;28;20384;-62
2023/01/28 11:23:33;;;;;;;13.00;9.90;;;1.60;99.90;;;;;;4989286;28;20030;-62
2023/01/28 11:26:06;;;;;;;13.80;9.52;;;1.70;99.90;;;;;;4987705;28;20092;-63
2023/01/28 11:28:33;;;;;;;13.20;9.63;;;1.70;99.90;;;;;;4989160;28;20038;-66
2023/01/28 11:31:01;;;;;;;11.85;9.80;;;1.60;99.90;;;;;;4988489;28;20026;-62
2023/01/28 11:33:37;;;;;;;12.00;9.73;;;1.60;99.90;;;;;;4989008;28;20057;-63
2023/01/28 11:36:25;;;;;;;19.67;9.15;;;1.60;99.90;;;;;;4989173;28;20067;-63
2023/01/28 11:38:59;;;;;;;12.98;8.77;;;1.60;99.90;;;;;;4989596;28;20473;-63
2023/01/28 11:41:33;;;;;;;11.00;8.13;;;1.60;99.90;;;;;;4989831;28;20023;-62
2023/01/28 11:44:20;;;;;;;13.07;9.30;;;1.50;99.90;;;;;;4988736;28;20120;-63
2023/01/28 11:47:07;;;;;;;14.07;9.95;;;1.50;99.90;;;;;;4988730;28;20374;-64
2023/01/28 11:49:57;;;;;;;12.55;9.77;;;1.50;99.90;;;;;;4989532;28;20392;-63
2023/01/28 11:52:36;;;;;;;14.68;9.52;;;1.50;99.90;;;;;;4989607;28;20497;-63
2023/01/28 11:55:39;;;;;;;12.60;9.98;;;1.50;99.90;;;;;;4988249;28;20057;-63
2023/01/28 11:58:23;;;;;;;12.57;9.90;;;1.60;99.90;;;;;;4987845;28;20066;-63
2023/01/28 12:00:56;;;;;;;12.90;9.38;;;1.70;99.90;;;;;;4989106;28;20022;-62
2023/01/28 12:03:46;;;;;;;10.43;8.43;;;1.70;99.90;;;;;;4986827;28;20026;-63
2023/01/28 12:06:33;;;;;;;11.52;8.88;;;1.70;99.90;;;;;;4988776;28;20056;-61
2023/01/28 12:09:11;;;;;;;12.60;9.45;;;1.80;99.90;;;;;;4987311;28;20081;-63
2023/01/28 12:12:11;;;;;;;10.18;8.80;;;1.90;99.90;;;;;;4987309;28;20834;-63
2023/01/28 12:15:11;;;;;;;11.63;8.68;;;1.90;99.90;;;;;;4987518;28;20512;-64
2023/01/28 12:18:10;;;;;;;10.48;8.85;;;2.00;99.90;;;;;;4989443;28;20045;-62
2023/01/28 12:20:48;;;;;;;14.38;9.60;;;2.00;99.90;;;;;;4986945;28;20097;-63
2023/01/28 12:23:35;;;;;;;12.77;8.73;;;2.00;99.90;;;;;;4989141;28;20019;-62
2023/01/28 12:26:18;;;;;;;12.45;9.13;;;2.10;99.90;;;;;;4988740;28;20028;-62
2023/01/28 12:29:07;;;;;;;12.23;8.90;;;2.10;99.90;;;;;;4989121;28;20501;-63
2023/01/28 12:32:08;;;;;;;12.50;8.98;;;2.10;99.90;;;;;;4989917;28;20019;-59
2023/01/28 12:34:47;;;;;;;12.38;9.57;;;2.00;99.90;;;;;;4989285;28;20026;-62
2023/01/28 12:37:58;;;;;;;11.27;9.60;;;2.00;99.90;;;;;;4987641;28;20023;-59
2023/01/28 12:40:34;;;;;;;13.43;9.50;;;2.00;99.90;;;;;;4985983;28;20026;-58
2023/01/28 12:43:14;;;;;;;10.82;9.30;;;2.00;99.90;;;;;;4987585;28;20030;-60
2023/01/28 12:45:50;;;;;;;11.70;9.85;;;2.00;99.90;;;;;;4985413;28;20113;-60
2023/01/28 12:48:39;;;;;;;12.05;9.23;;;2.00;99.90;;;;;;4987410;28;20033;-61
2023/01/28 12:51:16;;;;;;;17.30;9.85;;;2.00;99.90;;;;;;4988459;28;20073;-62
2023/01/28 12:54:03;;;;;;;17.73;11.20;;;2.00;99.90;;;;;;4989266;28;20406;-62
2023/01/28 12:56:32;;;;;;;;;;;2.00;99.90;;;;;;4989090;28;20030;-62
2023/01/28 12:59:13;;;;;;;12.60;9.32;;;2.00;99.90;;;;;;4992009;28;19972;-62
2023/01/28 13:02:01;;;;;;;13.95;9.52;;;1.90;99.90;;;;;;4990551;28;20026;-62
2023/01/28 13:04:37;;;;;;;15.48;10.85;;;1.90;99.90;;;;;;4992474;28;20045;-62
2023/01/28 13:07:11;;;;;;;13.32;10.35;;;1.90;99.90;;;;;;4991616;28;20113;-62
2023/01/28 13:09:42;;;;;;;16.65;10.68;;;1.80;99.90;;;;;;4992322;28;20429;-61
2023/01/28 13:12:10;;;;;;;12.88;10.20;;;1.70;99.90;;;;;;4991729;28;20032;-61
2023/01/28 13:14:36;;;;;;;13.88;9.55;;;1.70;99.90;;;;;;4992424;28;20034;-61
2023/01/28 13:17:11;;;;;;;15.52;10.25;;;1.70;99.90;;;;;;4993183;28;20049;-61
2023/01/28 13:19:39;;;;;;;15.73;11.13;;;1.70;99.90;;;;;;4991415;28;20449;-61
2023/01/28 13:22:26;;;;;;;14.38;11.40;;;1.70;99.90;;;;;;4991651;28;20097;-61
2023/01/28 13:24:51;;;;;;;22.90;10.38;;;1.70;99.90;;;;;;4991511;28;20033;-62
2023/01/28 13:27:26;;;;;;;15.75;11.18;;;1.70;99.90;;;;;;4993293;28;20038;-61
2023/01/28 13:30:22;;;;;;;15.18;10.55;;;1.80;99.90;;;;;;4991448;28;20014;-62
2023/01/28 13:33:05;;;;;;;13.18;10.93;;;1.80;99.90;;;;;;4991981;28;20038;-62
2023/01/28 13:35:39;;;;;;;13.10;9.93;;;1.90;99.90;;;;;;4991021;28;20038;-61
2023/01/28 13:38:15;;;;;;;13.70;9.63;;;1.90;99.90;;;;;;4990800;28;20031;-59